Equality — ODTX — position and weather

sailwx.info

Track history (hours):
 
Tides and Currents Weather Stations Pressure Air Temp Water Temp Dewpoint Dewpoint Depression Visibility Wind Speed Wind Dir Waves Ship Positions

Equality

Last reported at 2017-Aug-21 02:05 UTC. Time now 2017-Aug-21 14:17 UTC.
Position N 39°39' E 025°43'.

Length 124 m; draft 5.4 m.

Type: Cargo ship. MMSI: 450501000.

Date/timePositionNaut miles runAvg speedWind from/ knotsBaromVisibWave heightAir tempDewpointWater temp
2017-Aug-21 02:05N 39°39' E 025°43'110.7
2017-Aug-21 01:59N 39°40' E 025°44'511.2
2017-Aug-21 01:31N 39°45' E 025°46'811.6
2017-Aug-21 00:47N 39°53' E 025°50'711.3
2017-Aug-21 00:09N 39°59' E 025°55'310.0
2017-Aug-20 23:52N 40°00' E 025°59'411.2
2017-Aug-20 23:30N 40°00' E 026°04'612.3
2017-Aug-20 23:01N 40°02' E 026°12'89 1.7
2017-Aug-18 19:26N 40°45' E 027°54'  
2017-Aug-15 10:50N 36°28' E 015°11'310.5
2017-Aug-15 10:30N 36°28' E 015°07'810.8
2017-Aug-15 09:47N 36°28' E 014°57'311.5
2017-Aug-15 09:30N 36°28' E 014°53'611.4
2017-Aug-15 09:01N 36°29' E 014°46'611.4
2017-Aug-15 08:31N 36°29' E 014°39'611.3
2017-Aug-15 08:00N 36°30' E 014°32'611.1
2017-Aug-15 07:29N 36°31' E 014°25'511.0
2017-Aug-15 07:00N 36°32' E 014°19'611.1
2017-Aug-15 06:29N 36°33' E 014°12'511.1
2017-Aug-15 06:00N 36°34' E 014°05'610.9
2017-Aug-15 05:28N 36°35' E 013°58'510.7
2017-Aug-15 05:01N 36°36' E 013°52'510.7
2017-Aug-15 04:30N 36°37' E 013°46'510.6
2017-Aug-15 04:00N 36°39' E 013°39'510.3
2017-Aug-15 03:30N 36°40' E 013°33'510.2
2017-Aug-15 03:00N 36°42' E 013°27'510.1
2017-Aug-15 02:30N 36°43' E 013°21'5 9.9
2017-Aug-15 02:00N 36°45' E 013°15'5 9.8
2017-Aug-15 01:30N 36°46' E 013°09'5 9.8
2017-Aug-15 01:00N 36°48' E 013°03'5 9.7
2017-Aug-15 00:31N 36°49' E 012°58'5 9.6
2017-Aug-15 00:00N 36°50' E 012°52'5 9.2
2017-Aug-14 23:30N 36°52' E 012°46'5 9.3
2017-Aug-14 23:00N 36°53' E 012°41'5 9.2
2017-Aug-14 22:30N 36°54' E 012°35'5 9.3
2017-Aug-14 22:00N 36°55' E 012°29'5 9.5
2017-Aug-14 21:30N 36°56' E 012°24'5 9.6
2017-Aug-14 21:00N 36°58' E 012°18'5 9.7
2017-Aug-14 20:31N 36°59' E 012°12'5 9.7
2017-Aug-14 20:00N 37°01' E 012°06'5 9.7
2017-Aug-14 19:31N 37°02' E 012°01'5 9.5
2017-Aug-14 19:00N 37°04' E 011°55'38 9.9
2017-Aug-14 15:11N 37°21' E 011°13'4 9.9
2017-Aug-14 14:46N 37°23' E 011°08'62 9.8
2017-Aug-14 08:27N 37°31' E 009°50'5210.1
2017-Aug-14 03:17N 37°20' E 008°47'410.3
2017-Aug-14 02:55N 37°19' E 008°42'9 9.2
2017-Aug-14 01:57N 37°18' E 008°31'410.0
2017-Aug-14 01:30N 37°18' E 008°25'5 9.8
2017-Aug-14 00:59N 37°18' E 008°19'5 9.7
2017-Aug-14 00:30N 37°18' E 008°13'5 9.7
2017-Aug-13 23:59N 37°18' E 008°07'419 9.0
2017-Aug-12 01:25N 37°31' W 000°40'4 9.4
2017-Aug-12 00:59N 37°30' W 000°45'4 9.3
2017-Aug-12 00:30N 37°30' W 000°51'  
Track history (hours):
 
Tides and Currents Weather Stations Pressure Air Temp Water Temp Dewpoint Dewpoint Depression Visibility Wind Speed Wind Dir Waves Ship Positions

Equality

Last reported at 2017-Aug-21 02:05 UTC. Time now 2017-Aug-21 14:17 UTC.
Position N 39°39' E 025°43'.

Length 124 m; draft 5.4 m.

Type: Cargo ship. MMSI: 450501000.

Date/timePositionNaut miles runAvg speedWind from/ knotsBaromVisibWave heightAir tempDewpointWater temp
2017-Aug-21 02:05N 39°39' E 025°43'110.7
2017-Aug-21 01:59N 39°40' E 025°44'511.2
2017-Aug-21 01:31N 39°45' E 025°46'811.6
2017-Aug-21 00:47N 39°53' E 025°50'711.3
2017-Aug-21 00:09N 39°59' E 025°55'310.0
2017-Aug-20 23:52N 40°00' E 025°59'411.2
2017-Aug-20 23:30N 40°00' E 026°04'612.3
2017-Aug-20 23:01N 40°02' E 026°12'89 1.7
2017-Aug-18 19:26N 40°45' E 027°54'  
2017-Aug-15 10:50N 36°28' E 015°11'310.5
2017-Aug-15 10:30N 36°28' E 015°07'810.8
2017-Aug-15 09:47N 36°28' E 014°57'311.5
2017-Aug-15 09:30N 36°28' E 014°53'611.4
2017-Aug-15 09:01N 36°29' E 014°46'611.4
2017-Aug-15 08:31N 36°29' E 014°39'611.3
2017-Aug-15 08:00N 36°30' E 014°32'611.1
2017-Aug-15 07:29N 36°31' E 014°25'511.0
2017-Aug-15 07:00N 36°32' E 014°19'611.1
2017-Aug-15 06:29N 36°33' E 014°12'511.1
2017-Aug-15 06:00N 36°34' E 014°05'610.9
2017-Aug-15 05:28N 36°35' E 013°58'510.7
2017-Aug-15 05:01N 36°36' E 013°52'510.7
2017-Aug-15 04:30N 36°37' E 013°46'510.6
2017-Aug-15 04:00N 36°39' E 013°39'510.3
2017-Aug-15 03:30N 36°40' E 013°33'510.2
2017-Aug-15 03:00N 36°42' E 013°27'510.1
2017-Aug-15 02:30N 36°43' E 013°21'5 9.9
2017-Aug-15 02:00N 36°45' E 013°15'5 9.8
2017-Aug-15 01:30N 36°46' E 013°09'5 9.8
2017-Aug-15 01:00N 36°48' E 013°03'5 9.7
2017-Aug-15 00:31N 36°49' E 012°58'5 9.6
2017-Aug-15 00:00N 36°50' E 012°52'5 9.2
2017-Aug-14 23:30N 36°52' E 012°46'5 9.3
2017-Aug-14 23:00N 36°53' E 012°41'5 9.2
2017-Aug-14 22:30N 36°54' E 012°35'5 9.3
2017-Aug-14 22:00N 36°55' E 012°29'5 9.5
2017-Aug-14 21:30N 36°56' E 012°24'5 9.6
2017-Aug-14 21:00N 36°58' E 012°18'5 9.7
2017-Aug-14 20:31N 36°59' E 012°12'5 9.7
2017-Aug-14 20:00N 37°01' E 012°06'5 9.7
2017-Aug-14 19:31N 37°02' E 012°01'5 9.5
2017-Aug-14 19:00N 37°04' E 011°55'38 9.9
2017-Aug-14 15:11N 37°21' E 011°13'4 9.9
2017-Aug-14 14:46N 37°23' E 011°08'62 9.8
2017-Aug-14 08:27N 37°31' E 009°50'5210.1
2017-Aug-14 03:17N 37°20' E 008°47'410.3
2017-Aug-14 02:55N 37°19' E 008°42'9 9.2
2017-Aug-14 01:57N 37°18' E 008°31'410.0
2017-Aug-14 01:30N 37°18' E 008°25'5 9.8
2017-Aug-14 00:59N 37°18' E 008°19'5 9.7
2017-Aug-14 00:30N 37°18' E 008°13'5 9.7
2017-Aug-13 23:59N 37°18' E 008°07'419 9.0
2017-Aug-12 01:25N 37°31' W 000°40'4 9.4
2017-Aug-12 00:59N 37°30' W 000°45'4 9.3
2017-Aug-12 00:30N 37°30' W 000°51'  

Dump ship's entire track history